Whittemore, IA (50598)

6:15 AM CDT on August 31, 2015 (GMT -0500)
West Bend | | Change Station
CLOSE
Current Station
Personal Weather Station
Location: West Bend, IA
Elevation: 1198 ft
Nearby Weather Stations
Active Advisory: Special Statement

Elev 1198 ft 42.96 °N, 94.45 °W | Updated 31 seconds ago

Fog
Fog
63.3 °F
Feels Like 63.3 °F
N
0.0
Wind Variable Wind from SE
Gusts 0.0 mph

Today
High -- | Low -- °F
--% Chance of Precip.
Yesterday
High -- | Low -- °F
Precip. -- in
6:40 AM 7:54 PM
Waning Gibbous, 96% visible
Pressure 29.97 in
Visibility 0.2 miles
Clouds Overcast 200 ft
Dew Point 62 °F
Humidity 97%
Rainfall 0.00 in
Snow Depth Not available.
UV 0.0 out of 12
Pollen 9.90 out of 12
Air Quality Not available.
Flu Activity Not available.
METAR KAXA 311055Z AUTO 19007KT 1/4SM FG OVC002 18/18 A2997 RMK AO2
Pressure 29.97 in
Visibility 0.2 miles
Clouds Overcast 200 ft
Dew Point 62 °F
Humidity 97%
Rainfall 0.00 in
Snow Depth Not available.
UV 0.0 out of 12
Pollen 9.90 out of 12
Air Quality Not available.
Flu Activity Not available.
METAR KAXA 311055Z AUTO 19007KT 1/4SM FG OVC002 18/18 A2997 RMK AO2

10-Day Weather Forecast

×

Almanac

Astronomy

Aug. 31, 2015 Rise Set
Actual Time
Civil Twilight
Nautical Twilight
Astronomical Twilight
Moon
Length of Visible Light
Length of Day
Tomorrow will be .
, % of the Moon is Illuminated

Today's Extremes

State Highs State Lows

Community

WunderPhotos

Upload Photos

1,851,217 photos uploaded!

WunderBlogs® & News

Nearby

Air Quality

  Air Quality AQ Index Pollutant
Not available.

Snow Depth

Station Depth Elevation

Earthquake Activity

City Distance Mag. Time & Date
Minimum magnitude displayed is 2.5.

Coastal Water Temperatures

Place Temperature

Stations

Nearby Weather Stations

Station Location Temp. Windchill Dew Point Humidity Wind Precip. Elev Updated Type
                   
Special Statement
Statement as of 3:21 AM CDT on August 31, 2015

... Areas of fog through the early morning hours...

Fog will be prevalent in many areas until around 900 am and may be
dense in spots... especially low lying areas. Visibilities may dip
to a quarter mile at times. Motorists are urged to slow
down... use low beam headlights and allow for extra stopping
distance between vehicles.


Small

321 am CDT Mon Aug 31 2015

... Areas of fog through the early morning hours...

Fog will be prevalent in many areas until around 900 am and may be
dense in spots... especially low lying areas. Visibilities may dip
to a quarter mile at times. Motorists are urged to slow
down... use low beam headlights and allow for extra stopping
distance between vehicles.


Small